Mactan-Cebu International Airport

Airport
ICAO code: 
RPVM
IATA Code: 
CEB
Summary
ICAO Region: 
APAC
Territory: 
Location: 
Lapu-Lapu City, Central Visayas
Serving: 
Cebu City
Elevation: 
31 ft
Coordinates: 
Aerial View: 
10° 18' 31.716" N, 123° 58' 52.32" E
Metar
Observation
RPVM 162200Z 35005KT 320V020 9999 FEW018CB BKN250 26/24 Q1011 RMK A2985 CB NE
Station
Masbate
Date/Time
2022-05-16 22:00:00
Wind direction
350°
Wind speed
05 kts
Lowest cloud amount
few clouds
Temperature
26°C
Dew point
24°C
Humidity
88%
QNH
1011 hPa
Weather condition
n/a

Mactan-Cebu International Airport is a major international airport in the Visayas region of the Philippines. It is located in Lapu-Lapu City, Mactan Island, Metro Cebu and is the country's second primary gateway.

Climatology

Tropical Rainforest climate (Köppen climate classification Af)

Runways

Designator Length Width Surface Rops
4/22 3300 45 ASP Yes/Yes
Airport map: 
Aerial View: 

SKYbrary Partners:

Safety knowledge contributed by: